createdAt,value
2023-03-16T00:02:05.279Z,72.23
2023-03-16T00:04:48.359Z,72.25
2023-03-16T00:07:32.786Z,71.89
2023-03-16T00:10:13.420Z,72.56
2023-03-16T00:12:54.826Z,72.72
2023-03-16T00:15:33.940Z,72.55
2023-03-16T00:18:13.323Z,72.53
2023-03-16T00:20:52.389Z,72.15
2023-03-16T00:23:40.061Z,72.87
2023-03-16T00:26:19.321Z,72.73
2023-03-16T00:28:58.421Z,72.27
2023-03-16T00:31:37.509Z,72.50
2023-03-16T00:34:17.403Z,73.08
2023-03-16T00:36:56.419Z,72.99
2023-03-16T00:39:40.721Z,73.20
2023-03-16T00:42:22.060Z,73.50
2023-03-16T00:45:01.275Z,73.05
2023-03-16T00:47:43.327Z,72.77
2023-03-16T00:50:23.188Z,73.08
2023-03-16T00:53:02.727Z,73.06
2023-03-16T00:55:46.847Z,73.03
2023-03-16T00:58:26.193Z,72.63
2023-03-16T01:01:05.425Z,72.63
2023-03-16T01:03:44.659Z,72.83
2023-03-16T01:06:24.868Z,72.57
2023-03-16T01:09:06.448Z,72.96
2023-03-16T01:11:54.436Z,72.97
2023-03-16T01:14:33.481Z,72.82
2023-03-16T01:17:15.160Z,73.17
2023-03-16T01:19:54.693Z,73.05
2023-03-16T01:22:34.805Z,72.71
2023-03-16T01:25:14.723Z,72.51
2023-03-16T01:27:59.638Z,72.33
2023-03-16T01:30:38.829Z,72.69
2023-03-16T01:33:17.928Z,72.34
2023-03-16T01:36:00.625Z,72.37
2023-03-16T01:38:39.877Z,72.33
2023-03-16T01:41:19.950Z,72.59
2023-03-16T01:44:04.450Z,72.62
2023-03-16T01:46:45.201Z,72.83
2023-03-16T01:49:29.923Z,73.27
2023-03-16T01:52:14.176Z,73.21
2023-03-16T01:54:56.945Z,73.06
2023-03-16T01:57:42.258Z,72.79
2023-03-16T02:00:33.534Z,72.69
2023-03-16T02:03:19.807Z,72.59
2023-03-16T02:06:05.662Z,71.99
2023-03-16T02:08:47.634Z,71.81
2023-03-16T02:11:26.851Z,71.71
2023-03-16T02:14:15.371Z,72.04
2023-03-16T02:17:01.317Z,72.30
2023-03-16T02:19:53.768Z,72.21
2023-03-16T02:22:36.958Z,72.07
2023-03-16T02:25:16.755Z,71.90
2023-03-16T02:28:08.759Z,72.32
2023-03-16T02:30:54.255Z,72.62
2023-03-16T02:33:33.673Z,72.76
2023-03-16T02:36:13.145Z,72.22
2023-03-16T02:38:52.603Z,72.34
2023-03-16T02:41:33.794Z,72.27
2023-03-16T02:44:20.779Z,72.76
2023-03-16T02:47:12.904Z,71.97
2023-03-16T02:49:53.148Z,72.00
2023-03-16T02:52:32.262Z,72.08
2023-03-16T02:55:14.042Z,72.20
2023-03-16T02:57:53.332Z,72.49
2023-03-16T03:00:33.181Z,72.65
2023-03-16T03:03:17.347Z,72.99
2023-03-16T03:05:56.731Z,73.20
2023-03-16T03:08:35.900Z,73.05
2023-03-16T03:11:15.100Z,73.09
2023-03-16T03:13:54.524Z,73.26
2023-03-16T03:16:33.655Z,73.44
2023-03-16T03:19:17.880Z,73.48
2023-03-16T03:21:58.226Z,73.53
2023-03-16T03:24:38.777Z,73.22
2023-03-16T03:27:17.840Z,73.87
2023-03-16T03:29:56.932Z,73.55
2023-03-16T03:32:36.072Z,73.62
2023-03-16T03:35:22.526Z,73.99
2023-03-16T03:38:01.752Z,73.77
2023-03-16T03:40:41.209Z,74.02
2023-03-16T03:43:20.263Z,74.41
2023-03-16T03:46:04.142Z,74.16
2023-03-16T03:48:43.322Z,74.23
2023-03-16T03:51:27.917Z,74.20
2023-03-16T03:54:07.018Z,74.43
2023-03-16T03:56:46.123Z,74.17
2023-03-16T03:59:25.869Z,74.43
2023-03-16T04:02:05.135Z,74.79
2023-03-16T04:04:44.602Z,74.46
2023-03-16T04:07:28.734Z,74.23
2023-03-16T04:10:07.827Z,74.32
2023-03-16T04:12:47.007Z,74.51
2023-03-16T04:15:26.529Z,74.53
2023-03-16T04:18:05.711Z,74.56
2023-03-16T04:20:44.883Z,74.03
2023-03-16T04:23:30.835Z,74.17
2023-03-16T04:26:10.115Z,74.31
2023-03-16T04:28:49.473Z,73.89
2023-03-16T04:31:28.738Z,74.09
2023-03-16T04:34:07.835Z,74.14
2023-03-16T04:36:48.075Z,74.78
2023-03-16T04:39:32.238Z,74.15
2023-03-16T04:42:11.369Z,74.15
2023-03-16T04:44:50.589Z,74.35
2023-03-16T04:47:29.682Z,74.27
2023-03-16T04:50:09.078Z,75.13
2023-03-16T04:52:48.261Z,74.34
2023-03-16T04:55:32.438Z,74.49
2023-03-16T04:58:11.948Z,74.13
2023-03-16T05:00:51.022Z,74.36
2023-03-16T05:03:33.856Z,74.43
2023-03-16T05:06:13.466Z,74.32
2023-03-16T05:08:52.599Z,74.88
2023-03-16T05:11:36.801Z,74.62
2023-03-16T05:14:16.872Z,74.55
2023-03-16T05:16:55.944Z,75.03
2023-03-16T05:19:35.248Z,74.93
2023-03-16T05:22:14.437Z,74.40
2023-03-16T05:24:53.545Z,74.62
2023-03-16T05:27:37.773Z,74.43
2023-03-16T05:30:19.242Z,74.67
2023-03-16T05:32:59.097Z,73.89
2023-03-16T05:35:39.212Z,73.60
2023-03-16T05:38:18.465Z,74.14
2023-03-16T05:41:05.289Z,73.85
2023-03-16T05:43:50.024Z,73.86
2023-03-16T05:46:29.179Z,73.82
2023-03-16T05:49:08.346Z,73.54
2023-03-16T05:51:47.456Z,73.21
2023-03-16T05:54:26.625Z,73.82
2023-03-16T05:57:07.784Z,73.39
2023-03-16T05:59:52.155Z,73.30
2023-03-16T06:02:32.176Z,73.70
2023-03-16T06:05:12.174Z,73.31
2023-03-16T06:07:51.642Z,73.43
2023-03-16T06:10:31.279Z,73.20
2023-03-16T06:13:10.478Z,73.21
2023-03-16T06:15:54.679Z,72.95
2023-03-16T06:18:33.853Z,72.75
2023-03-16T06:21:13.609Z,72.50
2023-03-16T06:23:52.716Z,72.71
2023-03-16T06:26:32.096Z,72.64
2023-03-16T06:29:11.977Z,72.45
2023-03-16T06:31:58.173Z,72.78
2023-03-16T06:34:38.385Z,72.92
2023-03-16T06:37:17.852Z,72.99
2023-03-16T06:39:56.910Z,72.46
2023-03-16T06:42:36.032Z,72.35
2023-03-16T06:45:17.652Z,72.29
2023-03-16T06:48:02.054Z,71.91
2023-03-16T06:50:41.162Z,72.26
2023-03-16T06:53:21.035Z,72.66
2023-03-16T06:56:00.223Z,72.22
2023-03-16T06:58:39.382Z,72.54
2023-03-16T07:01:18.701Z,71.84
2023-03-16T07:04:02.961Z,72.07
2023-03-16T07:06:42.453Z,71.30
2023-03-16T07:09:22.941Z,71.37
2023-03-16T07:12:02.194Z,71.33
2023-03-16T07:14:41.337Z,70.98
2023-03-16T07:17:20.578Z,71.04
2023-03-16T07:20:06.391Z,71.18
2023-03-16T07:22:45.960Z,70.79
2023-03-16T07:25:25.412Z,70.37
2023-03-16T07:28:04.656Z,70.41
2023-03-16T07:30:53.317Z,70.54
2023-03-16T07:33:35.783Z,69.97
2023-03-16T07:36:20.232Z,69.66
2023-03-16T07:38:59.440Z,69.89
2023-03-16T07:41:38.587Z,69.58
2023-03-16T07:44:18.134Z,69.56
2023-03-16T07:46:57.702Z,70.00
2023-03-16T07:49:36.829Z,69.81
2023-03-16T07:52:21.192Z,69.66
2023-03-16T07:55:01.061Z,69.25
2023-03-16T07:57:40.327Z,69.17
2023-03-16T08:00:24.848Z,70.35
2023-03-16T08:03:04.724Z,69.86
2023-03-16T08:05:44.022Z,69.15
2023-03-16T08:08:28.879Z,69.05
2023-03-16T08:11:08.062Z,68.81
2023-03-16T08:13:48.214Z,69.27
2023-03-16T08:16:28.279Z,67.87
2023-03-16T08:19:07.483Z,67.59
2023-03-16T08:22:00.771Z,67.70
2023-03-16T08:24:45.683Z,67.21
2023-03-16T08:27:26.987Z,66.91
2023-03-16T08:30:08.060Z,67.37
2023-03-16T08:32:48.020Z,67.19
2023-03-16T08:35:28.556Z,66.97
2023-03-16T08:38:07.669Z,66.97
2023-03-16T08:40:53.241Z,66.93
2023-03-16T08:43:33.688Z,66.09
2023-03-16T08:46:14.788Z,66.44
2023-03-16T08:48:56.801Z,66.03
2023-03-16T08:51:36.265Z,66.14
2023-03-16T08:54:16.465Z,66.50
2023-03-16T08:57:00.962Z,66.45
2023-03-16T08:59:40.227Z,66.29
2023-03-16T09:02:20.441Z,66.21
2023-03-16T09:04:59.983Z,66.48
2023-03-16T09:07:40.459Z,66.78
2023-03-16T09:10:20.794Z,66.76
2023-03-16T09:13:05.018Z,67.11
2023-03-16T09:15:45.141Z,65.99
2023-03-16T09:18:25.137Z,66.53
2023-03-16T09:21:05.632Z,66.41
2023-03-16T09:23:45.234Z,66.27
2023-03-16T09:26:24.306Z,66.23
2023-03-16T09:29:08.668Z,67.30
2023-03-16T09:31:48.301Z,66.91
2023-03-16T09:34:28.173Z,65.76
2023-03-16T09:37:07.996Z,65.82
2023-03-16T09:39:48.501Z,64.92
2023-03-16T09:42:37.549Z,65.44
2023-03-16T09:45:31.348Z,65.02
2023-03-16T09:48:12.985Z,64.69
2023-03-16T09:50:54.228Z,64.48
2023-03-16T09:53:37.342Z,63.84
2023-03-16T09:56:21.653Z,63.13
2023-03-16T09:59:02.091Z,63.45
2023-03-16T10:01:59.311Z,62.79
2023-03-16T10:04:51.544Z,61.63
2023-03-16T10:07:43.718Z,61.67
2023-03-16T10:10:35.081Z,60.92
2023-03-16T10:13:26.344Z,60.72
2023-03-16T10:16:12.445Z,60.64
2023-03-16T10:19:04.418Z,59.58
2023-03-16T10:21:48.332Z,58.41
2023-03-16T10:24:43.867Z,56.89
2023-03-16T10:27:28.147Z,57.48
2023-03-16T10:32:56.136Z,57.81
2023-03-16T10:35:52.046Z,57.01
2023-03-16T10:38:39.665Z,57.02
2023-03-16T10:41:38.183Z,55.67
2023-03-16T10:44:20.267Z,56.28
2023-03-16T10:47:09.405Z,55.98
2023-03-16T10:49:52.346Z,55.66
2023-03-16T10:52:45.308Z,54.81
2023-03-16T10:55:30.111Z,54.14
2023-03-16T10:58:10.203Z,54.44
2023-03-16T11:00:50.623Z,52.16
2023-03-16T11:03:34.324Z,52.15
2023-03-16T11:06:28.356Z,51.46
2023-03-16T11:09:21.914Z,51.29
2023-03-16T11:12:01.514Z,52.19
2023-03-16T11:14:42.552Z,51.61
2023-03-16T11:17:26.200Z,50.94
2023-03-16T11:20:15.562Z,50.97
2023-03-16T11:22:56.239Z,51.56
2023-03-16T11:25:51.242Z,51.14
2023-03-16T11:28:42.897Z,50.71
2023-03-16T11:31:30.889Z,50.61
2023-03-16T11:34:10.552Z,50.70
2023-03-16T11:36:57.525Z,49.76
2023-03-16T11:39:45.852Z,49.85
2023-03-16T11:42:41.137Z,49.89
2023-03-16T11:45:29.642Z,49.71
2023-03-16T11:48:29.769Z,49.00
2023-03-16T11:51:16.576Z,48.66
2023-03-16T11:54:05.120Z,47.83
2023-03-16T11:56:50.387Z,47.30
2023-03-16T12:00:01.563Z,46.80
2023-03-16T12:02:52.513Z,44.92
2023-03-16T12:05:52.344Z,43.89
2023-03-16T12:09:00.702Z,42.33
2023-03-16T12:11:52.653Z,41.96
2023-03-16T12:14:45.151Z,40.88
2023-03-16T12:17:30.518Z,41.21
2023-03-16T12:20:15.882Z,41.02
2023-03-16T12:23:00.429Z,41.96
2023-03-16T12:25:43.856Z,40.99
2023-03-16T12:28:30.115Z,41.27
2023-03-16T12:31:23.996Z,41.49
2023-03-16T12:34:16.690Z,40.25
2023-03-16T12:37:20.576Z,40.32
2023-03-16T12:40:21.977Z,39.61
2023-03-16T12:43:17.624Z,39.37
2023-03-16T12:46:11.469Z,38.90
2023-03-16T12:49:01.293Z,38.24
2023-03-16T12:51:42.389Z,34.85
2023-03-16T12:54:29.929Z,34.06
2023-03-16T12:57:12.724Z,32.73
2023-03-16T12:59:53.962Z,33.01
2023-03-16T13:02:38.609Z,32.43
2023-03-16T13:05:27.159Z,31.11
2023-03-16T13:08:16.933Z,29.85
2023-03-16T13:11:15.433Z,30.82
2023-03-16T13:14:00.554Z,31.97
2023-03-16T13:16:42.745Z,29.69
2023-03-16T13:19:33.632Z,29.43
2023-03-16T13:22:33.248Z,30.70
2023-03-16T13:25:26.474Z,31.03
2023-03-16T13:28:07.678Z,30.88
2023-03-16T13:30:53.661Z,31.49
2023-03-16T13:33:36.998Z,29.40
2023-03-16T13:36:21.265Z,26.59
2023-03-16T13:39:14.458Z,27.83
2023-03-16T13:42:03.185Z,29.95
2023-03-16T13:44:47.054Z,31.57
2023-03-16T13:47:27.472Z,32.38
2023-03-16T13:50:07.850Z,32.36
2023-03-16T13:52:48.757Z,32.82
2023-03-16T13:55:38.600Z,32.85
2023-03-16T13:58:35.204Z,32.42
2023-03-16T14:01:30.344Z,33.32
2023-03-16T14:04:19.787Z,33.89
2023-03-16T14:07:03.247Z,34.45
2023-03-16T14:09:43.258Z,35.18
2023-03-16T14:12:27.586Z,35.51
2023-03-16T14:15:07.212Z,36.19
2023-03-16T14:17:50.364Z,36.13
2023-03-16T14:20:34.956Z,36.23
2023-03-16T14:23:26.519Z,36.06
2023-03-16T14:26:06.025Z,35.67
2023-03-16T14:29:03.993Z,33.30
2023-03-16T14:31:44.657Z,33.26
2023-03-16T14:34:29.859Z,33.91
2023-03-16T14:37:16.841Z,34.49
2023-03-16T14:40:08.790Z,33.67
2023-03-16T14:42:47.962Z,32.54
2023-03-16T14:45:41.150Z,32.82
2023-03-16T14:48:26.751Z,33.23
2023-03-16T14:51:09.058Z,33.41
2023-03-16T14:53:48.208Z,33.86
2023-03-16T14:56:27.563Z,33.01
2023-03-16T14:59:07.805Z,32.96
2023-03-16T15:01:52.774Z,33.17
2023-03-16T15:04:38.376Z,32.28
2023-03-16T15:07:31.517Z,32.26
2023-03-16T15:10:16.351Z,31.68
2023-03-16T15:13:05.103Z,32.54
2023-03-16T15:15:44.213Z,33.53
2023-03-16T15:18:28.390Z,33.62
2023-03-16T15:21:09.050Z,33.13
2023-03-16T15:23:48.980Z,33.65
2023-03-16T15:26:33.829Z,34.29
2023-03-16T15:29:14.024Z,34.77
2023-03-16T15:31:54.593Z,34.47
2023-03-16T15:34:38.895Z,34.95
2023-03-16T15:37:21.546Z,35.72
2023-03-16T15:40:00.775Z,36.43
2023-03-16T15:42:39.850Z,35.85
2023-03-16T15:45:22.367Z,35.59
2023-03-16T15:48:01.577Z,36.66
2023-03-16T15:50:47.799Z,36.99
2023-03-16T15:53:35.616Z,37.18
2023-03-16T15:56:19.188Z,36.67
2023-03-16T15:58:58.563Z,37.21
2023-03-16T16:01:46.056Z,37.01
2023-03-16T16:04:28.041Z,37.28
2023-03-16T16:07:18.229Z,37.99
2023-03-16T16:09:58.050Z,36.79
2023-03-16T16:12:39.274Z,37.18
2023-03-16T16:15:26.671Z,36.75
2023-03-16T16:18:20.751Z,37.17
2023-03-16T16:21:00.703Z,36.97
2023-03-16T16:23:44.909Z,37.61
2023-03-16T16:26:48.297Z,38.08
2023-03-16T16:29:31.199Z,38.29
2023-03-16T16:32:10.525Z,38.79
2023-03-16T16:35:03.441Z,38.89
2023-03-16T16:37:42.847Z,40.27
2023-03-16T16:40:33.543Z,40.29
2023-03-16T16:43:14.479Z,40.27
2023-03-16T16:45:53.989Z,40.21
2023-03-16T16:48:38.374Z,41.16
2023-03-16T16:51:25.831Z,42.13
2023-03-16T16:54:09.115Z,41.64
2023-03-16T16:59:41.038Z,42.81
2023-03-16T17:02:39.306Z,42.95
2023-03-16T17:05:26.877Z,43.80
2023-03-16T17:08:06.096Z,44.72
2023-03-16T17:10:45.691Z,43.89
2023-03-16T17:13:35.134Z,45.25
2023-03-16T17:16:17.724Z,46.40
2023-03-16T17:18:57.004Z,46.76
2023-03-16T17:21:39.137Z,46.83
2023-03-16T17:24:18.188Z,48.16
2023-03-16T17:27:00.285Z,48.41
2023-03-16T17:29:44.529Z,48.61
2023-03-16T17:32:27.853Z,48.61
2023-03-16T17:35:13.195Z,48.91
2023-03-16T17:37:53.171Z,49.13
2023-03-16T17:40:34.622Z,49.05
2023-03-16T17:43:21.969Z,49.43
2023-03-16T17:46:15.588Z,49.92
2023-03-16T17:48:57.861Z,49.91
2023-03-16T17:51:40.326Z,50.32
2023-03-16T17:54:20.883Z,50.68
2023-03-16T17:57:00.061Z,50.79
2023-03-16T17:59:43.004Z,50.60
2023-03-16T18:02:45.853Z,50.53
2023-03-16T18:05:28.184Z,50.69
2023-03-16T18:08:14.630Z,50.99
2023-03-16T18:10:58.327Z,51.11
2023-03-16T18:13:40.211Z,51.23
2023-03-16T18:16:26.261Z,51.20
2023-03-16T18:19:20.733Z,51.13
2023-03-16T18:22:00.434Z,51.88
2023-03-16T18:24:39.518Z,51.86
2023-03-16T18:27:18.511Z,52.23
2023-03-16T18:29:57.762Z,52.40
2023-03-16T18:32:38.172Z,52.71
2023-03-16T18:35:26.989Z,52.52
2023-03-16T18:38:06.666Z,52.95
2023-03-16T18:40:45.871Z,53.39
2023-03-16T18:43:27.176Z,53.64
2023-03-16T18:46:06.550Z,54.24
2023-03-16T18:48:45.598Z,54.04
2023-03-16T18:51:30.846Z,54.19
2023-03-16T18:54:09.938Z,54.17
2023-03-16T18:56:49.602Z,55.41
2023-03-16T18:59:28.664Z,55.60
2023-03-16T19:02:09.340Z,55.93
2023-03-16T19:04:48.867Z,56.43
2023-03-16T19:07:42.092Z,56.23
2023-03-16T19:10:40.410Z,55.91
2023-03-16T19:13:23.764Z,56.52
2023-03-16T19:16:05.155Z,56.78
2023-03-16T19:18:44.033Z,56.83
2023-03-16T19:21:26.941Z,57.09
2023-03-16T19:24:13.934Z,57.12
2023-03-16T19:26:53.048Z,57.54
2023-03-16T19:29:38.055Z,57.49
2023-03-16T19:32:24.141Z,58.45
2023-03-16T19:35:03.471Z,59.08
2023-03-16T19:37:42.491Z,59.55
2023-03-16T19:40:29.855Z,60.24
2023-03-16T19:43:09.252Z,60.49
2023-03-16T19:45:48.425Z,60.28
2023-03-16T19:48:37.851Z,60.42
2023-03-16T19:51:19.823Z,60.19
2023-03-16T19:54:00.869Z,60.72
2023-03-16T19:56:45.991Z,60.68
2023-03-16T19:59:26.860Z,60.97
2023-03-16T20:04:44.217Z,61.05
2023-03-16T20:07:23.949Z,61.13
2023-03-16T20:10:03.485Z,61.10
2023-03-16T20:12:52.416Z,61.45
2023-03-16T20:15:37.477Z,61.70
2023-03-16T20:18:20.659Z,61.31
2023-03-16T20:20:59.669Z,61.54
2023-03-16T20:23:40.196Z,61.39
2023-03-16T20:26:24.668Z,61.33
2023-03-16T20:29:09.371Z,61.67
2023-03-16T20:31:48.565Z,61.86
2023-03-16T20:34:31.812Z,61.05
2023-03-16T20:37:29.879Z,61.26
2023-03-16T20:40:11.430Z,61.69
2023-03-16T20:42:53.173Z,61.75
2023-03-16T20:45:37.702Z,61.45
2023-03-16T20:48:21.297Z,61.69
2023-03-16T20:51:01.605Z,62.43
2023-03-16T20:53:40.658Z,61.70
2023-03-16T20:56:24.201Z,62.22
2023-03-16T20:59:04.792Z,62.89
2023-03-16T21:01:50.764Z,63.15
2023-03-16T21:04:32.887Z,62.61
2023-03-16T21:07:13.547Z,62.01
2023-03-16T21:09:52.642Z,62.89
2023-03-16T21:12:35.495Z,62.75
2023-03-16T21:15:24.905Z,63.08
2023-03-16T21:18:12.930Z,63.40
2023-03-16T21:20:52.723Z,63.87
2023-03-16T21:23:31.979Z,63.49
2023-03-16T21:26:11.282Z,63.29
2023-03-16T21:28:53.620Z,63.23
2023-03-16T21:31:33.740Z,63.42
2023-03-16T21:34:29.928Z,63.84
2023-03-16T21:37:09.003Z,63.46
2023-03-16T21:39:48.900Z,63.93
2023-03-16T21:42:28.093Z,63.62
2023-03-16T21:45:07.137Z,64.52
2023-03-16T21:47:47.397Z,63.27
2023-03-16T21:50:38.086Z,64.71
2023-03-16T21:53:28.054Z,64.44
2023-03-16T21:56:07.634Z,64.09
2023-03-16T21:58:46.702Z,64.14
2023-03-16T22:01:30.137Z,64.06
2023-03-16T22:04:13.779Z,64.65
2023-03-16T22:06:57.872Z,64.86
2023-03-16T22:09:37.095Z,64.97
2023-03-16T22:12:19.431Z,65.25
2023-03-16T22:14:58.496Z,64.17
2023-03-16T22:17:38.103Z,64.75
2023-03-16T22:20:25.067Z,65.45
2023-03-16T22:23:10.844Z,64.63
2023-03-16T22:25:49.888Z,65.05
2023-03-16T22:28:28.958Z,64.64
2023-03-16T22:31:11.360Z,64.69
2023-03-16T22:33:52.785Z,65.06
2023-03-16T22:36:32.573Z,65.30
2023-03-16T22:39:19.451Z,65.40
2023-03-16T22:41:59.028Z,65.35
2023-03-16T22:44:38.167Z,65.69
2023-03-16T22:47:29.139Z,65.33
2023-03-16T22:50:08.350Z,65.26
2023-03-16T22:52:47.730Z,65.43
2023-03-16T22:55:36.851Z,65.51
2023-03-16T22:58:24.547Z,65.11
2023-03-16T23:01:04.419Z,66.02
2023-03-16T23:03:43.802Z,65.76
2023-03-16T23:06:26.539Z,66.09
2023-03-16T23:09:05.980Z,66.06
2023-03-16T23:11:54.001Z,66.10
2023-03-16T23:14:39.171Z,66.05
2023-03-16T23:17:23.707Z,65.97
2023-03-16T23:20:02.748Z,66.15
2023-03-16T23:22:41.906Z,66.12
2023-03-16T23:25:21.240Z,66.43
2023-03-16T23:28:09.012Z,65.65
2023-03-16T23:30:48.100Z,66.26
2023-03-16T23:33:27.160Z,66.49
2023-03-16T23:36:06.310Z,66.58
2023-03-16T23:38:45.621Z,66.42
2023-03-16T23:41:28.838Z,66.88
2023-03-16T23:44:14.284Z,67.11
2023-03-16T23:46:53.588Z,67.03
2023-03-16T23:49:36.879Z,66.80
2023-03-16T23:52:18.661Z,66.67
2023-03-16T23:54:57.691Z,66.86
2023-03-16T23:57:36.771Z,66.94
